sensor_id;sensor_type;location;lat;lon;timestamp;temperature;humidity
15115;DHT22;7658;51.456;7.622;2022-11-15T00:01:46;9.70;99.90
15115;DHT22;7658;51.456;7.622;2022-11-15T00:04:12;9.70;99.90
15115;DHT22;7658;51.456;7.622;2022-11-15T00:06:38;9.80;99.90
15115;DHT22;7658;51.456;7.622;2022-11-15T00:09:03;9.80;99.90
15115;DHT22;7658;51.456;7.622;2022-11-15T00:11:29;9.90;99.90
15115;DHT22;7658;51.456;7.622;2022-11-15T00:13:56;9.90;99.90
15115;DHT22;7658;51.456;7.622;2022-11-15T00:16:22;10.10;99.90
15115;DHT22;7658;51.456;7.622;2022-11-15T00:18:48;10.10;99.90
15115;DHT22;7658;51.456;7.622;2022-11-15T00:21:14;10.10;99.90
15115;DHT22;7658;51.456;7.622;2022-11-15T00:23:40;10.20;99.90
15115;DHT22;7658;51.456;7.622;2022-11-15T00:26:08;10.30;99.90
15115;DHT22;7658;51.456;7.622;2022-11-15T00:28:36;10.40;99.90
15115;DHT22;7658;51.456;7.622;2022-11-15T00:31:03;10.40;99.90
15115;DHT22;7658;51.456;7.622;2022-11-15T00:33:29;10.60;99.90
15115;DHT22;7658;51.456;7.622;2022-11-15T00:36:06;10.70;99.90
15115;DHT22;7658;51.456;7.622;2022-11-15T00:38:33;11.00;99.90
15115;DHT22;7658;51.456;7.622;2022-11-15T00:41:00;11.10;99.90
15115;DHT22;7658;51.456;7.622;2022-11-15T00:43:26;11.30;99.90
15115;DHT22;7658;51.456;7.622;2022-11-15T00:45:52;11.30;99.90
15115;DHT22;7658;51.456;7.622;2022-11-15T00:48:18;11.40;99.90
15115;DHT22;7658;51.456;7.622;2022-11-15T00:50:43;11.40;99.90
15115;DHT22;7658;51.456;7.622;2022-11-15T00:53:09;11.50;99.90
15115;DHT22;7658;51.456;7.622;2022-11-15T00:55:35;11.60;99.90
15115;DHT22;7658;51.456;7.622;2022-11-15T00:58:01;11.70;99.90
15115;DHT22;7658;51.456;7.622;2022-11-15T01:00:26;11.70;99.90
15115;DHT22;7658;51.456;7.622;2022-11-15T01:02:53;11.80;99.90
15115;DHT22;7658;51.456;7.622;2022-11-15T01:05:18;11.80;99.90
15115;DHT22;7658;51.456;7.622;2022-11-15T01:07:44;11.80;99.90
15115;DHT22;7658;51.456;7.622;2022-11-15T01:10:10;11.90;99.90
15115;DHT22;7658;51.456;7.622;2022-11-15T01:12:36;11.90;99.90
15115;DHT22;7658;51.456;7.622;2022-11-15T01:15:03;11.80;99.90
15115;DHT22;7658;51.456;7.622;2022-11-15T01:17:30;11.80;99.90
15115;DHT22;7658;51.456;7.622;2022-11-15T01:19:56;11.80;99.90
15115;DHT22;7658;51.456;7.622;2022-11-15T01:22:22;11.80;99.90
15115;DHT22;7658;51.456;7.622;2022-11-15T01:24:51;11.90;99.90
15115;DHT22;7658;51.456;7.622;2022-11-15T01:27:17;11.90;99.90
15115;DHT22;7658;51.456;7.622;2022-11-15T01:29:43;11.90;99.90
15115;DHT22;7658;51.456;7.622;2022-11-15T01:32:09;11.90;99.90
15115;DHT22;7658;51.456;7.622;2022-11-15T01:34:35;12.00;99.90
15115;DHT22;7658;51.456;7.622;2022-11-15T01:37:01;11.90;99.90
15115;DHT22;7658;51.456;7.622;2022-11-15T01:39:26;11.90;99.90
15115;DHT22;7658;51.456;7.622;2022-11-15T01:41:52;12.00;99.90
15115;DHT22;7658;51.456;7.622;2022-11-15T01:47:01;12.00;99.90
15115;DHT22;7658;51.456;7.622;2022-11-15T01:49:30;12.00;99.90
15115;DHT22;7658;51.456;7.622;2022-11-15T01:51:58;12.00;99.90
15115;DHT22;7658;51.456;7.622;2022-11-15T01:54:26;12.00;99.90
15115;DHT22;7658;51.456;7.622;2022-11-15T01:57:01;12.00;99.90
15115;DHT22;7658;51.456;7.622;2022-11-15T01:59:29;12.00;99.90
15115;DHT22;7658;51.456;7.622;2022-11-15T02:01:55;12.00;99.90
15115;DHT22;7658;51.456;7.622;2022-11-15T02:04:26;12.00;99.90
15115;DHT22;7658;51.456;7.622;2022-11-15T02:06:53;12.00;99.90
15115;DHT22;7658;51.456;7.622;2022-11-15T02:09:19;12.00;99.90
15115;DHT22;7658;51.456;7.622;2022-11-15T02:11:46;12.00;99.90
15115;DHT22;7658;51.456;7.622;2022-11-15T02:14:14;11.90;99.90
15115;DHT22;7658;51.456;7.622;2022-11-15T02:22:21;11.80;99.90
15115;DHT22;7658;51.456;7.622;2022-11-15T02:30:42;11.80;99.90
15115;DHT22;7658;51.456;7.622;2022-11-15T02:33:35;11.80;99.90
15115;DHT22;7658;51.456;7.622;2022-11-15T02:39:18;11.90;99.90
15115;DHT22;7658;51.456;7.622;2022-11-15T02:41:59;11.90;99.90
15115;DHT22;7658;51.456;7.622;2022-11-15T02:44:38;11.80;99.90
15115;DHT22;7658;51.456;7.622;2022-11-15T02:47:12;11.80;99.90
15115;DHT22;7658;51.456;7.622;2022-11-15T02:49:47;11.70;99.90
15115;DHT22;7658;51.456;7.622;2022-11-15T02:52:18;11.70;99.90
15115;DHT22;7658;51.456;7.622;2022-11-15T02:54:55;11.70;99.90
15115;DHT22;7658;51.456;7.622;2022-11-15T03:00:09;11.70;99.90
15115;DHT22;7658;51.456;7.622;2022-11-15T03:05:35;11.70;99.90
15115;DHT22;7658;51.456;7.622;2022-11-15T03:08:20;11.70;99.90
15115;DHT22;7658;51.456;7.622;2022-11-15T03:11:10;11.70;99.90
15115;DHT22;7658;51.456;7.622;2022-11-15T03:13:43;11.70;99.90
15115;DHT22;7658;51.456;7.622;2022-11-15T03:16:23;11.70;99.90
15115;DHT22;7658;51.456;7.622;2022-11-15T03:19:03;11.70;99.90
15115;DHT22;7658;51.456;7.622;2022-11-15T03:21:33;11.70;99.90
15115;DHT22;7658;51.456;7.622;2022-11-15T03:24:03;11.80;99.90
15115;DHT22;7658;51.456;7.622;2022-11-15T03:26:32;11.90;99.90
15115;DHT22;7658;51.456;7.622;2022-11-15T03:29:03;12.00;99.90
15115;DHT22;7658;51.456;7.622;2022-11-15T03:31:32;12.10;99.90
15115;DHT22;7658;51.456;7.622;2022-11-15T03:36:52;12.10;99.90
15115;DHT22;7658;51.456;7.622;2022-11-15T03:39:18;12.10;99.90
15115;DHT22;7658;51.456;7.622;2022-11-15T03:42:16;12.00;99.90
15115;DHT22;7658;51.456;7.622;2022-11-15T03:44:42;12.00;99.90
15115;DHT22;7658;51.456;7.622;2022-11-15T03:47:13;12.00;99.90
15115;DHT22;7658;51.456;7.622;2022-11-15T03:49:45;11.90;99.90
15115;DHT22;7658;51.456;7.622;2022-11-15T03:52:12;11.90;99.90
15115;DHT22;7658;51.456;7.622;2022-11-15T03:54:48;11.90;99.90
15115;DHT22;7658;51.456;7.622;2022-11-15T03:57:14;11.90;99.90
15115;DHT22;7658;51.456;7.622;2022-11-15T03:59:40;11.90;99.90
15115;DHT22;7658;51.456;7.622;2022-11-15T04:02:06;12.00;99.90
15115;DHT22;7658;51.456;7.622;2022-11-15T04:04:31;12.00;99.90
15115;DHT22;7658;51.456;7.622;2022-11-15T04:06:57;12.00;99.90
15115;DHT22;7658;51.456;7.622;2022-11-15T04:09:23;12.10;99.90
15115;DHT22;7658;51.456;7.622;2022-11-15T04:11:48;12.10;99.90
15115;DHT22;7658;51.456;7.622;2022-11-15T04:14:14;12.10;99.90
15115;DHT22;7658;51.456;7.622;2022-11-15T04:16:40;12.20;99.90
15115;DHT22;7658;51.456;7.622;2022-11-15T04:19:06;12.20;99.90
15115;DHT22;7658;51.456;7.622;2022-11-15T04:21:50;12.20;99.90
15115;DHT22;7658;51.456;7.622;2022-11-15T04:24:34;12.20;99.90
15115;DHT22;7658;51.456;7.622;2022-11-15T04:26:59;12.30;99.90
15115;DHT22;7658;51.456;7.622;2022-11-15T04:29:26;12.30;99.90
15115;DHT22;7658;51.456;7.622;2022-11-15T04:32:05;12.30;99.90
15115;DHT22;7658;51.456;7.622;2022-11-15T04:34:31;12.20;99.90
15115;DHT22;7658;51.456;7.622;2022-11-15T04:36:57;12.20;99.90
15115;DHT22;7658;51.456;7.622;2022-11-15T04:39:40;12.10;99.90
15115;DHT22;7658;51.456;7.622;2022-11-15T04:42:06;12.20;99.90
15115;DHT22;7658;51.456;7.622;2022-11-15T04:44:31;12.20;99.90
15115;DHT22;7658;51.456;7.622;2022-11-15T04:46:57;12.20;99.90
15115;DHT22;7658;51.456;7.622;2022-11-15T04:49:23;12.20;99.90
15115;DHT22;7658;51.456;7.622;2022-11-15T04:51:48;12.20;99.90
15115;DHT22;7658;51.456;7.622;2022-11-15T04:54:14;12.20;99.90
15115;DHT22;7658;51.456;7.622;2022-11-15T04:56:40;12.20;99.90
15115;DHT22;7658;51.456;7.622;2022-11-15T04:59:06;12.30;99.90
15115;DHT22;7658;51.456;7.622;2022-11-15T05:01:31;12.30;99.90
15115;DHT22;7658;51.456;7.622;2022-11-15T05:03:57;12.30;99.90
15115;DHT22;7658;51.456;7.622;2022-11-15T05:06:41;12.30;99.90
15115;DHT22;7658;51.456;7.622;2022-11-15T05:09:07;12.30;99.90
15115;DHT22;7658;51.456;7.622;2022-11-15T05:11:33;12.30;99.90
15115;DHT22;7658;51.456;7.622;2022-11-15T05:13:59;12.30;99.90
15115;DHT22;7658;51.456;7.622;2022-11-15T05:16:24;12.30;99.90
15115;DHT22;7658;51.456;7.622;2022-11-15T05:18:52;12.30;99.90
15115;DHT22;7658;51.456;7.622;2022-11-15T05:21:18;12.30;99.90
15115;DHT22;7658;51.456;7.622;2022-11-15T05:23:44;12.30;99.90
15115;DHT22;7658;51.456;7.622;2022-11-15T05:26:09;12.30;99.90
15115;DHT22;7658;51.456;7.622;2022-11-15T05:28:36;12.30;99.90
15115;DHT22;7658;51.456;7.622;2022-11-15T05:31:20;12.30;99.90
15115;DHT22;7658;51.456;7.622;2022-11-15T05:33:46;12.20;99.90
15115;DHT22;7658;51.456;7.622;2022-11-15T05:36:14;12.30;99.90
15115;DHT22;7658;51.456;7.622;2022-11-15T05:38:41;12.30;99.90
15115;DHT22;7658;51.456;7.622;2022-11-15T05:41:07;12.30;99.90
15115;DHT22;7658;51.456;7.622;2022-11-15T05:43:35;12.30;99.90
15115;DHT22;7658;51.456;7.622;2022-11-15T05:46:04;12.30;99.90
15115;DHT22;7658;51.456;7.622;2022-11-15T05:48:31;12.30;99.90
15115;DHT22;7658;51.456;7.622;2022-11-15T05:50:57;12.30;99.90
15115;DHT22;7658;51.456;7.622;2022-11-15T05:53:25;12.30;99.90
15115;DHT22;7658;51.456;7.622;2022-11-15T05:55:51;12.20;99.90
15115;DHT22;7658;51.456;7.622;2022-11-15T05:58:18;12.20;99.90
15115;DHT22;7658;51.456;7.622;2022-11-15T06:00:44;12.20;99.90
15115;DHT22;7658;51.456;7.622;2022-11-15T06:03:10;12.20;99.90
15115;DHT22;7658;51.456;7.622;2022-11-15T06:05:36;12.10;99.90
15115;DHT22;7658;51.456;7.622;2022-11-15T06:08:02;12.10;99.90
15115;DHT22;7658;51.456;7.622;2022-11-15T06:10:28;12.00;99.90
15115;DHT22;7658;51.456;7.622;2022-11-15T06:13:01;12.00;99.90
15115;DHT22;7658;51.456;7.622;2022-11-15T06:15:27;12.00;99.90
15115;DHT22;7658;51.456;7.622;2022-11-15T06:17:56;11.90;99.90
15115;DHT22;7658;51.456;7.622;2022-11-15T06:20:26;11.90;99.90
15115;DHT22;7658;51.456;7.622;2022-11-15T06:23:03;12.00;99.90
15115;DHT22;7658;51.456;7.622;2022-11-15T06:25:30;12.00;99.90
15115;DHT22;7658;51.456;7.622;2022-11-15T06:27:59;12.00;99.90
15115;DHT22;7658;51.456;7.622;2022-11-15T06:30:25;12.00;99.90
15115;DHT22;7658;51.456;7.622;2022-11-15T06:32:52;11.90;99.90
15115;DHT22;7658;51.456;7.622;2022-11-15T06:35:23;11.90;99.90
15115;DHT22;7658;51.456;7.622;2022-11-15T06:37:49;12.00;99.90
15115;DHT22;7658;51.456;7.622;2022-11-15T06:40:15;12.00;99.90
15115;DHT22;7658;51.456;7.622;2022-11-15T06:42:41;12.10;99.90
15115;DHT22;7658;51.456;7.622;2022-11-15T06:45:07;12.10;99.90
15115;DHT22;7658;51.456;7.622;2022-11-15T06:47:32;12.10;99.90
15115;DHT22;7658;51.456;7.622;2022-11-15T06:49:58;12.10;99.90
15115;DHT22;7658;51.456;7.622;2022-11-15T06:52:24;12.10;99.90
15115;DHT22;7658;51.456;7.622;2022-11-15T06:54:50;12.20;99.90
15115;DHT22;7658;51.456;7.622;2022-11-15T06:57:15;12.20;99.90
15115;DHT22;7658;51.456;7.622;2022-11-15T06:59:41;12.20;99.90
15115;DHT22;7658;51.456;7.622;2022-11-15T07:02:12;12.30;99.90
15115;DHT22;7658;51.456;7.622;2022-11-15T07:04:38;12.30;99.90
15115;DHT22;7658;51.456;7.622;2022-11-15T07:07:04;12.30;99.90
15115;DHT22;7658;51.456;7.622;2022-11-15T07:09:30;12.30;99.90
15115;DHT22;7658;51.456;7.622;2022-11-15T07:11:55;12.30;99.90
15115;DHT22;7658;51.456;7.622;2022-11-15T07:14:21;12.40;99.90
15115;DHT22;7658;51.456;7.622;2022-11-15T07:16:47;12.40;99.90
15115;DHT22;7658;51.456;7.622;2022-11-15T07:19:12;12.40;99.90
15115;DHT22;7658;51.456;7.622;2022-11-15T07:21:38;12.40;99.90
15115;DHT22;7658;51.456;7.622;2022-11-15T07:24:04;12.40;99.90
15115;DHT22;7658;51.456;7.622;2022-11-15T07:26:30;12.40;99.90
15115;DHT22;7658;51.456;7.622;2022-11-15T07:28:56;12.40;99.90
15115;DHT22;7658;51.456;7.622;2022-11-15T07:31:21;12.40;99.90
15115;DHT22;7658;51.456;7.622;2022-11-15T07:33:47;12.30;99.90
15115;DHT22;7658;51.456;7.622;2022-11-15T07:36:13;12.30;99.90
15115;DHT22;7658;51.456;7.622;2022-11-15T07:38:39;12.30;99.90
15115;DHT22;7658;51.456;7.622;2022-11-15T07:41:05;12.30;99.90
15115;DHT22;7658;51.456;7.622;2022-11-15T07:43:32;12.20;99.90
15115;DHT22;7658;51.456;7.622;2022-11-15T07:46:08;12.30;99.90
15115;DHT22;7658;51.456;7.622;2022-11-15T07:48:38;12.30;99.90
15115;DHT22;7658;51.456;7.622;2022-11-15T07:51:06;12.30;99.90
15115;DHT22;7658;51.456;7.622;2022-11-15T07:53:32;12.20;99.90
15115;DHT22;7658;51.456;7.622;2022-11-15T07:55:57;12.20;99.90
15115;DHT22;7658;51.456;7.622;2022-11-15T07:58:23;12.20;99.90
15115;DHT22;7658;51.456;7.622;2022-11-15T08:00:49;12.20;99.90
15115;DHT22;7658;51.456;7.622;2022-11-15T08:03:16;12.20;99.90
15115;DHT22;7658;51.456;7.622;2022-11-15T08:05:43;12.20;99.90
15115;DHT22;7658;51.456;7.622;2022-11-15T08:08:10;12.20;99.90
15115;DHT22;7658;51.456;7.622;2022-11-15T08:10:36;12.20;99.90
15115;DHT22;7658;51.456;7.622;2022-11-15T08:13:10;12.20;99.90
15115;DHT22;7658;51.456;7.622;2022-11-15T08:15:37;12.20;99.90
15115;DHT22;7658;51.456;7.622;2022-11-15T08:18:09;12.20;99.90
15115;DHT22;7658;51.456;7.622;2022-11-15T08:20:35;12.20;99.90
15115;DHT22;7658;51.456;7.622;2022-11-15T08:23:02;12.20;99.90
15115;DHT22;7658;51.456;7.622;2022-11-15T08:25:30;12.20;99.90
15115;DHT22;7658;51.456;7.622;2022-11-15T08:27:57;12.20;99.90
15115;DHT22;7658;51.456;7.622;2022-11-15T08:30:24;12.30;99.90
15115;DHT22;7658;51.456;7.622;2022-11-15T08:32:51;12.30;99.90
15115;DHT22;7658;51.456;7.622;2022-11-15T08:35:18;12.30;99.90
15115;DHT22;7658;51.456;7.622;2022-11-15T08:37:44;12.30;99.90
15115;DHT22;7658;51.456;7.622;2022-11-15T08:40:10;12.30;99.90
15115;DHT22;7658;51.456;7.622;2022-11-15T08:42:36;12.40;99.90
15115;DHT22;7658;51.456;7.622;2022-11-15T08:45:02;12.40;99.90
15115;DHT22;7658;51.456;7.622;2022-11-15T08:47:28;12.40;99.90
15115;DHT22;7658;51.456;7.622;2022-11-15T08:49:54;12.50;99.90
15115;DHT22;7658;51.456;7.622;2022-11-15T08:52:20;12.50;99.90
15115;DHT22;7658;51.456;7.622;2022-11-15T08:54:46;12.50;99.90
15115;DHT22;7658;51.456;7.622;2022-11-15T08:57:12;12.50;99.90
15115;DHT22;7658;51.456;7.622;2022-11-15T08:59:37;12.50;99.90
15115;DHT22;7658;51.456;7.622;2022-11-15T09:02:04;12.60;99.90
15115;DHT22;7658;51.456;7.622;2022-11-15T09:04:30;12.60;99.90
15115;DHT22;7658;51.456;7.622;2022-11-15T09:06:56;12.60;99.90
15115;DHT22;7658;51.456;7.622;2022-11-15T09:09:22;12.70;99.90
15115;DHT22;7658;51.456;7.622;2022-11-15T09:11:47;12.70;99.90
15115;DHT22;7658;51.456;7.622;2022-11-15T09:14:14;12.70;99.90
15115;DHT22;7658;51.456;7.622;2022-11-15T09:16:40;12.80;99.90
15115;DHT22;7658;51.456;7.622;2022-11-15T09:19:06;12.80;99.90
15115;DHT22;7658;51.456;7.622;2022-11-15T09:21:32;12.80;99.90
15115;DHT22;7658;51.456;7.622;2022-11-15T09:23:58;12.80;99.90
15115;DHT22;7658;51.456;7.622;2022-11-15T09:26:24;12.80;99.90
15115;DHT22;7658;51.456;7.622;2022-11-15T09:28:50;12.90;99.90
15115;DHT22;7658;51.456;7.622;2022-11-15T09:31:16;12.90;99.90
15115;DHT22;7658;51.456;7.622;2022-11-15T09:33:45;12.90;99.90
15115;DHT22;7658;51.456;7.622;2022-11-15T09:36:11;13.00;99.90
15115;DHT22;7658;51.456;7.622;2022-11-15T09:38:37;12.90;99.90
15115;DHT22;7658;51.456;7.622;2022-11-15T09:44:04;13.00;99.90
15115;DHT22;7658;51.456;7.622;2022-11-15T09:49:21;13.00;99.90
15115;DHT22;7658;51.456;7.622;2022-11-15T09:51:50;13.00;99.90
15115;DHT22;7658;51.456;7.622;2022-11-15T09:54:36;13.00;99.90
15115;DHT22;7658;51.456;7.622;2022-11-15T09:57:15;13.00;99.90
15115;DHT22;7658;51.456;7.622;2022-11-15T10:00:06;13.00;99.90
15115;DHT22;7658;51.456;7.622;2022-11-15T10:05:18;13.10;99.90
15115;DHT22;7658;51.456;7.622;2022-11-15T10:10:39;13.20;99.90
15115;DHT22;7658;51.456;7.622;2022-11-15T10:13:30;13.20;99.90
15115;DHT22;7658;51.456;7.622;2022-11-15T10:16:16;13.20;99.90
15115;DHT22;7658;51.456;7.622;2022-11-15T10:19:01;13.30;99.90
15115;DHT22;7658;51.456;7.622;2022-11-15T10:24:24;13.50;99.90
15115;DHT22;7658;51.456;7.622;2022-11-15T10:26:50;13.60;99.90
15115;DHT22;7658;51.456;7.622;2022-11-15T10:29:20;13.70;99.90
15115;DHT22;7658;51.456;7.622;2022-11-15T10:31:46;13.90;99.90
15115;DHT22;7658;51.456;7.622;2022-11-15T10:34:23;14.10;99.90
15115;DHT22;7658;51.456;7.622;2022-11-15T10:36:58;14.20;99.90
15115;DHT22;7658;51.456;7.622;2022-11-15T10:39:25;14.20;99.90
15115;DHT22;7658;51.456;7.622;2022-11-15T10:41:51;14.20;99.90
15115;DHT22;7658;51.456;7.622;2022-11-15T10:46:44;14.10;99.90
15115;DHT22;7658;51.456;7.622;2022-11-15T10:49:24;14.20;99.90
15115;DHT22;7658;51.456;7.622;2022-11-15T10:52:03;14.20;99.90
15115;DHT22;7658;51.456;7.622;2022-11-15T10:54:42;14.20;99.90
15115;DHT22;7658;51.456;7.622;2022-11-15T10:57:27;14.20;99.90
15115;DHT22;7658;51.456;7.622;2022-11-15T11:00:07;14.40;99.90
15115;DHT22;7658;51.456;7.622;2022-11-15T11:02:37;14.50;99.90
15115;DHT22;7658;51.456;7.622;2022-11-15T11:08:37;14.50;99.90
15115;DHT22;7658;51.456;7.622;2022-11-15T11:10:55;14.40;99.90
15115;DHT22;7658;51.456;7.622;2022-11-15T11:13:26;14.40;99.90
15115;DHT22;7658;51.456;7.622;2022-11-15T11:24:12;14.70;99.90
15115;DHT22;7658;51.456;7.622;2022-11-15T11:26:57;14.70;99.90
15115;DHT22;7658;51.456;7.622;2022-11-15T11:29:52;14.90;99.90
15115;DHT22;7658;51.456;7.622;2022-11-15T11:35:11;15.30;99.90
15115;DHT22;7658;51.456;7.622;2022-11-15T11:37:53;15.40;99.90
15115;DHT22;7658;51.456;7.622;2022-11-15T11:44:27;15.70;99.90
15115;DHT22;7658;51.456;7.622;2022-11-15T11:46:52;15.90;99.90
15115;DHT22;7658;51.456;7.622;2022-11-15T11:49:25;15.70;99.90
15115;DHT22;7658;51.456;7.622;2022-11-15T11:54:32;15.80;99.90
15115;DHT22;7658;51.456;7.622;2022-11-15T11:57:04;15.90;99.90
15115;DHT22;7658;51.456;7.622;2022-11-15T11:59:54;15.90;99.90
15115;DHT22;7658;51.456;7.622;2022-11-15T12:04:57;15.90;99.90
15115;DHT22;7658;51.456;7.622;2022-11-15T12:07:32;15.80;99.90
15115;DHT22;7658;51.456;7.622;2022-11-15T12:13:13;15.80;99.90
15115;DHT22;7658;51.456;7.622;2022-11-15T12:16:00;15.80;99.90
15115;DHT22;7658;51.456;7.622;2022-11-15T12:18:28;15.90;99.90
15115;DHT22;7658;51.456;7.622;2022-11-15T12:20:59;16.00;99.90
15115;DHT22;7658;51.456;7.622;2022-11-15T12:23:39;16.10;99.90
15115;DHT22;7658;51.456;7.622;2022-11-15T12:26:16;16.00;99.90
15115;DHT22;7658;51.456;7.622;2022-11-15T12:29:03;15.90;99.90
15115;DHT22;7658;51.456;7.622;2022-11-15T12:31:39;15.50;99.90
15115;DHT22;7658;51.456;7.622;2022-11-15T12:36:49;15.00;99.90
15115;DHT22;7658;51.456;7.622;2022-11-15T12:39:16;15.00;99.90
15115;DHT22;7658;51.456;7.622;2022-11-15T13:02:26;14.80;99.90
15115;DHT22;7658;51.456;7.622;2022-11-15T13:10:29;14.80;99.90
15115;DHT22;7658;51.456;7.622;2022-11-15T13:12:57;14.70;99.90
15115;DHT22;7658;51.456;7.622;2022-11-15T13:18:35;14.80;99.90
15115;DHT22;7658;51.456;7.622;2022-11-15T13:21:03;14.90;99.90
15115;DHT22;7658;51.456;7.622;2022-11-15T13:23:54;14.80;99.90
15115;DHT22;7658;51.456;7.622;2022-11-15T13:26:21;14.80;99.90
15115;DHT22;7658;51.456;7.622;2022-11-15T13:28:49;14.80;99.90
15115;DHT22;7658;51.456;7.622;2022-11-15T13:34:01;14.90;99.90
15115;DHT22;7658;51.456;7.622;2022-11-15T13:36:30;14.90;99.90
15115;DHT22;7658;51.456;7.622;2022-11-15T13:39:12;14.80;99.90
15115;DHT22;7658;51.456;7.622;2022-11-15T13:41:49;14.80;99.90
15115;DHT22;7658;51.456;7.622;2022-11-15T13:44:28;14.70;99.90
15115;DHT22;7658;51.456;7.622;2022-11-15T13:47:05;14.80;99.90
15115;DHT22;7658;51.456;7.622;2022-11-15T13:49:33;14.80;99.90
15115;DHT22;7658;51.456;7.622;2022-11-15T13:52:00;14.80;99.90
15115;DHT22;7658;51.456;7.622;2022-11-15T13:54:37;14.70;99.90
15115;DHT22;7658;51.456;7.622;2022-11-15T13:57:14;14.70;99.90
15115;DHT22;7658;51.456;7.622;2022-11-15T14:00:01;14.60;99.90
15115;DHT22;7658;51.456;7.622;2022-11-15T14:02:31;14.50;99.90
15115;DHT22;7658;51.456;7.622;2022-11-15T14:05:19;14.40;99.90
15115;DHT22;7658;51.456;7.622;2022-11-15T14:08:22;14.30;99.90
15115;DHT22;7658;51.456;7.622;2022-11-15T14:11:06;14.30;99.90
15115;DHT22;7658;51.456;7.622;2022-11-15T14:13:32;14.20;99.90
15115;DHT22;7658;51.456;7.622;2022-11-15T14:16:18;14.10;99.90
15115;DHT22;7658;51.456;7.622;2022-11-15T14:18:51;14.00;99.90
15115;DHT22;7658;51.456;7.622;2022-11-15T14:21:19;14.00;99.90
15115;DHT22;7658;51.456;7.622;2022-11-15T14:23:45;13.90;99.90
15115;DHT22;7658;51.456;7.622;2022-11-15T14:26:32;13.90;99.90
15115;DHT22;7658;51.456;7.622;2022-11-15T14:29:25;13.90;99.90
15115;DHT22;7658;51.456;7.622;2022-11-15T14:31:51;13.90;99.90
15115;DHT22;7658;51.456;7.622;2022-11-15T14:34:17;13.80;99.90
15115;DHT22;7658;51.456;7.622;2022-11-15T14:36:43;13.80;99.90
15115;DHT22;7658;51.456;7.622;2022-11-15T14:39:09;13.80;99.90
15115;DHT22;7658;51.456;7.622;2022-11-15T14:41:36;13.80;99.90
15115;DHT22;7658;51.456;7.622;2022-11-15T14:44:06;13.80;99.90
15115;DHT22;7658;51.456;7.622;2022-11-15T14:46:32;13.80;99.90
15115;DHT22;7658;51.456;7.622;2022-11-15T14:48:58;13.70;99.90
15115;DHT22;7658;51.456;7.622;2022-11-15T14:51:23;13.70;99.90
15115;DHT22;7658;51.456;7.622;2022-11-15T14:53:49;13.70;99.90
15115;DHT22;7658;51.456;7.622;2022-11-15T14:56:16;13.70;99.90
15115;DHT22;7658;51.456;7.622;2022-11-15T14:58:42;13.70;99.90
15115;DHT22;7658;51.456;7.622;2022-11-15T15:03:39;13.70;99.90
15115;DHT22;7658;51.456;7.622;2022-11-15T15:06:05;13.70;99.90
15115;DHT22;7658;51.456;7.622;2022-11-15T15:08:31;13.70;99.90
15115;DHT22;7658;51.456;7.622;2022-11-15T15:10:56;13.70;99.90
15115;DHT22;7658;51.456;7.622;2022-11-15T15:13:23;13.70;99.90
15115;DHT22;7658;51.456;7.622;2022-11-15T15:15:51;13.60;99.90
15115;DHT22;7658;51.456;7.622;2022-11-15T15:18:17;13.60;99.90
15115;DHT22;7658;51.456;7.622;2022-11-15T15:20:45;13.60;99.90
15115;DHT22;7658;51.456;7.622;2022-11-15T15:23:18;13.50;99.90
15115;DHT22;7658;51.456;7.622;2022-11-15T15:25:45;13.50;99.90
15115;DHT22;7658;51.456;7.622;2022-11-15T15:28:12;13.50;99.90
15115;DHT22;7658;51.456;7.622;2022-11-15T15:30:37;13.40;99.90
15115;DHT22;7658;51.456;7.622;2022-11-15T15:33:03;13.40;99.90
15115;DHT22;7658;51.456;7.622;2022-11-15T15:35:33;13.30;99.90
15115;DHT22;7658;51.456;7.622;2022-11-15T15:38:00;13.30;99.90
15115;DHT22;7658;51.456;7.622;2022-11-15T15:40:28;13.30;99.90
15115;DHT22;7658;51.456;7.622;2022-11-15T15:42:54;13.30;99.90
15115;DHT22;7658;51.456;7.622;2022-11-15T15:45:20;13.30;99.90
15115;DHT22;7658;51.456;7.622;2022-11-15T15:47:46;13.20;99.90
15115;DHT22;7658;51.456;7.622;2022-11-15T15:50:20;13.20;99.90
15115;DHT22;7658;51.456;7.622;2022-11-15T15:52:47;13.20;99.90
15115;DHT22;7658;51.456;7.622;2022-11-15T15:55:13;13.20;99.90
15115;DHT22;7658;51.456;7.622;2022-11-15T15:57:39;13.10;99.90
15115;DHT22;7658;51.456;7.622;2022-11-15T16:00:05;13.10;99.90
15115;DHT22;7658;51.456;7.622;2022-11-15T16:02:31;13.10;99.90
15115;DHT22;7658;51.456;7.622;2022-11-15T16:04:57;13.10;99.90
15115;DHT22;7658;51.456;7.622;2022-11-15T16:07:23;13.10;99.90
15115;DHT22;7658;51.456;7.622;2022-11-15T16:09:49;13.10;99.90
15115;DHT22;7658;51.456;7.622;2022-11-15T16:12:33;13.10;99.90
15115;DHT22;7658;51.456;7.622;2022-11-15T16:15:00;13.10;99.90
15115;DHT22;7658;51.456;7.622;2022-11-15T16:17:31;13.10;99.90
15115;DHT22;7658;51.456;7.622;2022-11-15T16:19:59;13.10;99.90
15115;DHT22;7658;51.456;7.622;2022-11-15T16:22:25;13.10;99.90
15115;DHT22;7658;51.456;7.622;2022-11-15T16:24:50;13.00;99.90
15115;DHT22;7658;51.456;7.622;2022-11-15T16:27:19;13.00;99.90
15115;DHT22;7658;51.456;7.622;2022-11-15T16:29:45;13.00;99.90
15115;DHT22;7658;51.456;7.622;2022-11-15T16:32:11;13.00;99.90
15115;DHT22;7658;51.456;7.622;2022-11-15T16:34:37;13.00;99.90
15115;DHT22;7658;51.456;7.622;2022-11-15T16:37:04;13.00;99.90
15115;DHT22;7658;51.456;7.622;2022-11-15T16:39:30;13.00;99.90
15115;DHT22;7658;51.456;7.622;2022-11-15T16:41:59;13.00;99.90
15115;DHT22;7658;51.456;7.622;2022-11-15T16:44:25;13.10;99.90
15115;DHT22;7658;51.456;7.622;2022-11-15T16:46:51;13.00;99.90
15115;DHT22;7658;51.456;7.622;2022-11-15T16:49:18;13.10;99.90
15115;DHT22;7658;51.456;7.622;2022-11-15T16:51:46;13.10;99.90
15115;DHT22;7658;51.456;7.622;2022-11-15T16:54:12;13.00;99.90
15115;DHT22;7658;51.456;7.622;2022-11-15T16:56:38;13.00;99.90
15115;DHT22;7658;51.456;7.622;2022-11-15T16:59:05;13.00;99.90
15115;DHT22;7658;51.456;7.622;2022-11-15T17:01:33;13.00;99.90
15115;DHT22;7658;51.456;7.622;2022-11-15T17:04:00;13.00;99.90
15115;DHT22;7658;51.456;7.622;2022-11-15T17:06:38;13.00;99.90
15115;DHT22;7658;51.456;7.622;2022-11-15T17:09:04;13.00;99.90
15115;DHT22;7658;51.456;7.622;2022-11-15T17:11:29;13.00;99.90
15115;DHT22;7658;51.456;7.622;2022-11-15T17:13:59;13.10;99.90
15115;DHT22;7658;51.456;7.622;2022-11-15T17:16:25;13.10;99.90
15115;DHT22;7658;51.456;7.622;2022-11-15T17:18:51;13.10;99.90
15115;DHT22;7658;51.456;7.622;2022-11-15T17:21:19;13.10;99.90
15115;DHT22;7658;51.456;7.622;2022-11-15T17:23:45;13.10;99.90
15115;DHT22;7658;51.456;7.622;2022-11-15T17:26:13;13.10;99.90
15115;DHT22;7658;51.456;7.622;2022-11-15T17:28:39;13.10;99.90
15115;DHT22;7658;51.456;7.622;2022-11-15T17:31:10;13.10;99.90
15115;DHT22;7658;51.456;7.622;2022-11-15T17:33:37;13.10;99.90
15115;DHT22;7658;51.456;7.622;2022-11-15T17:36:06;13.10;99.90
15115;DHT22;7658;51.456;7.622;2022-11-15T17:38:33;13.10;99.90
15115;DHT22;7658;51.456;7.622;2022-11-15T17:41:18;13.10;99.90
15115;DHT22;7658;51.456;7.622;2022-11-15T17:43:46;13.10;99.90
15115;DHT22;7658;51.456;7.622;2022-11-15T17:46:14;13.10;99.90
15115;DHT22;7658;51.456;7.622;2022-11-15T17:48:40;13.10;99.90